Time;durP1;ratioP1;P1;durP2;ratioP2;P2;SDS_P1;SDS_P2;PMS_P1;PMS_P2;Temp;Humidity;BMP_temperature;BMP_pressure;BME280_temperature;BME280_humidity;BME280_pressure;Samples;Min_cycle;Max_cycle;Signal;HPM_P1;HPM_P2
2022/09/30 00:01:46;;;;;;;5.37;4.47;;;;;;;;;;4993704;28;20229;-74
2022/09/30 00:04:16;;;;;;;4.20;3.60;;;;;;;;;;4993682;28;20871;-74
2022/09/30 00:06:47;;;;;;;3.60;3.30;;;;;;;;;;4987763;28;20216;-74
2022/09/30 00:09:15;;;;;;;3.57;3.33;;;;;;;;;;4980356;28;20238;-74
2022/09/30 00:11:40;;;;;;;3.80;3.30;;;;;;;;;;4978764;28;20224;-74
2022/09/30 00:14:07;;;;;;;7.03;4.30;;;;;;;;;;4980012;28;20311;-73
2022/09/30 00:16:35;;;;;;;4.27;3.83;;;;;;;;;;4981077;28;20212;-73
2022/09/30 00:19:04;;;;;;;4.53;4.17;;;;;;;;;;4995284;28;20229;-74
2022/09/30 00:21:37;;;;;;;4.37;3.97;;;;;;;;;;4992985;28;20690;-74
2022/09/30 00:24:03;;;;;;;4.30;4.00;;;;;;;;;;4974725;28;20605;-74
2022/09/30 00:26:28;;;;;;;5.43;4.33;;;;;;;;;;4994265;28;20225;-74
2022/09/30 00:28:57;;;;;;;4.70;4.30;;;;;;;;;;4982959;28;20307;-74
2022/09/30 00:31:26;;;;;;;4.40;3.97;;;;;;;;;;5001019;28;20216;-74
2022/09/30 00:34:10;;;;;;;5.03;4.60;;;;;;;;;;4970829;28;20235;-74
2022/09/30 00:36:42;;;;;;;4.83;4.37;;;;;;;;;;4983861;28;20599;-74
2022/09/30 00:39:08;;;;;;;4.57;4.27;;;;;;;;;;5001338;28;20290;-75
2022/09/30 00:41:36;;;;;;;4.80;4.27;;;;;;;;;;4997029;28;20255;-73
2022/09/30 00:44:24;;;;;;;4.43;4.10;;;;;;;;;;5000754;28;20229;-74
2022/09/30 00:46:49;;;;;;;5.30;4.60;;;;;;;;;;5000887;28;20243;-74
2022/09/30 00:49:18;;;;;;;4.90;4.40;;;;;;;;;;4967458;28;20216;-74
2022/09/30 00:51:48;;;;;;;4.10;3.80;;;;;;;;;;4981426;28;20227;-74
2022/09/30 00:54:25;;;;;;;4.33;4.03;;;;;;;;;;4983292;28;20228;-74
2022/09/30 00:56:59;;;;;;;4.27;3.67;;;;;;;;;;4985786;28;20232;-74
2022/09/30 00:59:32;;;;;;;3.90;3.33;;;;;;;;;;4999631;28;20223;-74
2022/09/30 01:02:00;;;;;;;4.03;3.17;;;;;;;;;;4998890;28;20236;-73
2022/09/30 01:04:26;;;;;;;3.40;3.10;;;;;;;;;;4972165;28;20224;-74
2022/09/30 01:06:54;;;;;;;5.50;3.10;;;;;;;;;;4994052;28;20229;-74
2022/09/30 01:09:22;;;;;;;3.63;3.30;;;;;;;;;;4966580;28;20229;-74
2022/09/30 01:11:47;;;;;;;3.57;3.03;;;;;;;;;;5002786;28;20231;-74
2022/09/30 01:14:23;;;;;;;3.43;3.13;;;;;;;;;;4983254;28;20270;-74
2022/09/30 01:17:07;;;;;;;3.70;3.33;;;;;;;;;;4981754;28;20713;-74
2022/09/30 01:19:57;;;;;;;6.80;3.40;;;;;;;;;;4984494;28;20212;-73
2022/09/30 01:22:30;;;;;;;3.67;3.37;;;;;;;;;;4984868;28;20316;-74
2022/09/30 01:25:23;;;;;;;4.00;3.63;;;;;;;;;;4997239;28;20332;-74
2022/09/30 01:27:49;;;;;;;4.17;3.80;;;;;;;;;;5012907;28;20282;-74
2022/09/30 01:30:20;;;;;;;4.30;4.00;;;;;;;;;;4987260;28;20248;-74
2022/09/30 01:32:56;;;;;;;4.30;4.00;;;;;;;;;;4985509;28;20223;-74
2022/09/30 01:35:30;;;;;;;4.57;4.07;;;;;;;;;;5015828;28;20826;-74
2022/09/30 01:38:05;;;;;;;4.57;4.20;;;;;;;;;;4997887;28;20309;-75
2022/09/30 01:40:50;;;;;;;4.57;4.17;;;;;;;;;;4998644;28;20233;-74
2022/09/30 01:43:30;;;;;;;4.73;4.13;;;;;;;;;;4998045;28;20220;-74
2022/09/30 01:46:02;;;;;;;5.23;3.83;;;;;;;;;;4983755;28;20248;-74
2022/09/30 01:48:42;;;;;;;4.63;4.23;;;;;;;;;;4997840;28;20231;-74
2022/09/30 01:51:11;;;;;;;4.63;4.33;;;;;;;;;;4984970;28;20598;-74
2022/09/30 01:53:47;;;;;;;5.17;4.67;;;;;;;;;;4978582;28;20731;-74
2022/09/30 01:56:17;;;;;;;8.93;6.20;;;;;;;;;;4993266;28;20307;-73
2022/09/30 01:59:14;;;;;;;6.47;5.77;;;;;;;;;;4978735;28;20664;-74
2022/09/30 02:01:49;;;;;;;6.30;5.70;;;;;;;;;;4980942;28;20320;-73
2022/09/30 02:04:43;;;;;;;5.43;4.97;;;;;;;;;;4978466;28;20236;-73
2022/09/30 02:07:35;;;;;;;5.20;4.80;;;;;;;;;;4994496;28;20308;-75
2022/09/30 02:10:13;;;;;;;8.47;4.47;;;;;;;;;;4967652;28;20304;-74
2022/09/30 02:12:46;;;;;;;4.53;4.23;;;;;;;;;;5011143;28;20227;-74
2022/09/30 02:15:14;;;;;;;4.67;4.17;;;;;;;;;;4977466;28;20221;-73
2022/09/30 02:17:47;;;;;;;4.80;4.23;;;;;;;;;;4988148;28;20236;-74
2022/09/30 02:20:23;;;;;;;5.47;4.97;;;;;;;;;;4992195;28;20698;-74
2022/09/30 02:22:50;;;;;;;6.73;6.13;;;;;;;;;;4987646;28;20723;-73
2022/09/30 02:25:21;;;;;;;8.37;7.17;;;;;;;;;;4962135;28;20312;-75
2022/09/30 02:27:51;;;;;;;9.20;7.23;;;;;;;;;;4995934;28;20229;-74
2022/09/30 02:30:17;;;;;;;8.90;8.13;;;;;;;;;;4993755;28;20220;-74
2022/09/30 02:32:52;;;;;;;8.70;7.93;;;;;;;;;;4972613;28;20733;-74
2022/09/30 02:35:24;;;;;;;11.40;10.03;;;;;;;;;;4980638;28;20225;-74
2022/09/30 02:37:54;;;;;;;11.40;10.30;;;;;;;;;;4978403;28;20237;-74
2022/09/30 02:40:30;;;;;;;10.70;9.23;;;;;;;;;;4993762;28;20239;-74
2022/09/30 02:42:58;;;;;;;10.67;9.67;;;;;;;;;;4993372;28;20228;-74
2022/09/30 02:45:23;;;;;;;11.63;10.13;;;;;;;;;;4980082;28;20309;-74
2022/09/30 02:48:01;;;;;;;10.20;9.40;;;;;;;;;;5001746;28;20756;-74
2022/09/30 02:50:32;;;;;;;10.60;9.77;;;;;;;;;;5010581;28;20228;-75
2022/09/30 02:53:24;;;;;;;11.00;9.90;;;;;;;;;;4977135;28;20286;-75
2022/09/30 02:56:06;;;;;;;11.47;10.33;;;;;;;;;;4972298;28;20691;-74
2022/09/30 02:58:37;;;;;;;9.47;8.67;;;;;;;;;;4974508;28;20769;-75
2022/09/30 03:01:02;;;;;;;9.73;8.83;;;;;;;;;;4957319;28;20229;-75
2022/09/30 03:03:35;;;;;;;9.80;8.90;;;;;;;;;;4994686;28;20673;-74
2022/09/30 03:06:01;;;;;;;9.77;9.00;;;;;;;;;;4994369;28;20243;-74
2022/09/30 03:08:30;;;;;;;9.83;8.90;;;;;;;;;;4992044;28;20217;-74
2022/09/30 03:10:56;;;;;;;10.20;9.30;;;;;;;;;;5009098;28;20240;-75
2022/09/30 03:13:40;;;;;;;9.17;8.37;;;;;;;;;;5009438;28;20225;-75
2022/09/30 03:17:00;;;;;;;10.00;9.00;;;;;;;;;;5008639;28;20228;-74
2022/09/30 03:20:03;;;;;;;9.70;7.80;;;;;;;;;;4976814;28;20260;-74
2022/09/30 03:22:31;;;;;;;8.47;7.67;;;;;;;;;;5009524;28;20230;-76
2022/09/30 03:25:34;;;;;;;8.93;8.10;;;;;;;;;;4994543;28;20598;-74
2022/09/30 03:28:13;;;;;;;8.53;7.73;;;;;;;;;;4996529;28;20236;-74
2022/09/30 03:31:18;;;;;;;8.03;7.33;;;;;;;;;;4995504;28;20225;-75
2022/09/30 03:34:15;;;;;;;9.13;8.03;;;;;;;;;;4975574;28;20251;-74
2022/09/30 03:36:45;;;;;;;9.47;8.13;;;;;;;;;;5010410;28;20235;-73
2022/09/30 03:39:22;;;;;;;8.83;7.93;;;;;;;;;;4963355;28;20227;-75
2022/09/30 03:42:09;;;;;;;8.80;8.10;;;;;;;;;;5008414;28;20321;-74
2022/09/30 03:44:51;;;;;;;9.67;8.67;;;;;;;;;;4978735;28;20228;-74
2022/09/30 03:47:17;;;;;;;9.50;8.70;;;;;;;;;;4978457;28;20234;-73
2022/09/30 03:49:45;;;;;;;9.53;8.53;;;;;;;;;;4976773;28;20216;-75
2022/09/30 03:52:11;;;;;;;9.73;8.67;;;;;;;;;;4994922;28;20647;-74
2022/09/30 03:54:53;;;;;;;10.40;9.40;;;;;;;;;;4992483;28;20879;-74
2022/09/30 03:57:18;;;;;;;9.40;8.60;;;;;;;;;;4976037;28;20221;-75
2022/09/30 03:59:44;;;;;;;10.20;8.73;;;;;;;;;;4992217;28;20314;-75
2022/09/30 04:02:12;;;;;;;9.87;9.07;;;;;;;;;;4994310;28;20221;-74
2022/09/30 04:04:40;;;;;;;10.50;9.70;;;;;;;;;;4962452;28;20688;-73
2022/09/30 04:07:07;;;;;;;10.57;9.63;;;;;;;;;;4977114;28;20220;-75
2022/09/30 04:09:35;;;;;;;10.43;9.53;;;;;;;;;;4974213;28;20392;-75
2022/09/30 04:12:03;;;;;;;9.70;9.00;;;;;;;;;;4987433;28;20738;-75
2022/09/30 04:14:32;;;;;;;9.03;8.27;;;;;;;;;;4993106;28;20601;-75
2022/09/30 04:16:57;;;;;;;8.83;8.03;;;;;;;;;;4980131;28;20232;-74
2022/09/30 04:19:25;;;;;;;8.17;7.50;;;;;;;;;;4991527;28;20249;-75
2022/09/30 04:21:52;;;;;;;8.17;7.47;;;;;;;;;;5007757;28;20228;-75
2022/09/30 04:24:18;;;;;;;6.63;6.03;;;;;;;;;;4979599;28;20229;-76
2022/09/30 04:26:47;;;;;;;7.17;6.50;;;;;;;;;;4961912;28;20256;-76
2022/09/30 04:29:12;;;;;;;7.07;6.37;;;;;;;;;;4975302;28;20235;-73
2022/09/30 04:31:38;;;;;;;7.73;6.93;;;;;;;;;;5013239;28;20244;-75
2022/09/30 04:34:10;;;;;;;6.47;5.97;;;;;;;;;;4998716;28;20641;-74
2022/09/30 04:36:38;;;;;;;7.23;6.63;;;;;;;;;;4994638;28;20221;-73
2022/09/30 04:39:08;;;;;;;6.83;6.23;;;;;;;;;;4994056;28;20233;-74
2022/09/30 04:41:37;;;;;;;6.97;6.37;;;;;;;;;;5009657;28;20240;-75
2022/09/30 04:44:05;;;;;;;7.90;7.20;;;;;;;;;;4977710;28;20253;-75
2022/09/30 04:46:31;;;;;;;7.67;7.00;;;;;;;;;;4944833;28;20224;-74
2022/09/30 04:48:56;;;;;;;8.97;8.17;;;;;;;;;;4995477;28;20304;-75
2022/09/30 04:51:22;;;;;;;8.90;8.07;;;;;;;;;;5008153;28;20282;-74
2022/09/30 04:53:50;;;;;;;8.73;8.03;;;;;;;;;;4961244;28;20236;-74
2022/09/30 04:56:15;;;;;;;7.40;6.80;;;;;;;;;;4995891;28;20597;-74
2022/09/30 04:58:44;;;;;;;10.53;9.53;;;;;;;;;;4996555;28;20302;-74
2022/09/30 05:01:11;;;;;;;9.17;8.20;;;;;;;;;;4976769;28;20299;-75
2022/09/30 05:03:42;;;;;;;9.50;8.70;;;;;;;;;;4962417;28;20315;-75
2022/09/30 05:06:10;;;;;;;8.80;8.10;;;;;;;;;;4953190;28;20263;-74
2022/09/30 05:08:35;;;;;;;10.10;9.20;;;;;;;;;;4978829;28;20224;-74
2022/09/30 05:11:08;;;;;;;9.43;8.53;;;;;;;;;;4996386;28;20239;-74
2022/09/30 05:13:38;;;;;;;10.80;9.40;;;;;;;;;;4986588;28;20237;-74
2022/09/30 05:16:10;;;;;;;9.33;8.43;;;;;;;;;;4976092;28;20217;-74
2022/09/30 05:18:38;;;;;;;9.17;8.33;;;;;;;;;;4982272;28;20729;-75
2022/09/30 05:21:11;;;;;;;9.90;9.10;;;;;;;;;;4999258;28;20235;-74
2022/09/30 05:23:42;;;;;;;8.63;7.93;;;;;;;;;;4981596;28;20227;-74
2022/09/30 05:26:07;;;;;;;9.10;8.40;;;;;;;;;;4997810;28;20371;-73
2022/09/30 05:28:33;;;;;;;9.03;8.27;;;;;;;;;;4993552;28;20906;-73
2022/09/30 05:31:03;;;;;;;9.17;8.43;;;;;;;;;;4982081;28;20667;-73
2022/09/30 05:33:29;;;;;;;9.03;8.20;;;;;;;;;;4994228;28;20267;-73
2022/09/30 05:35:58;;;;;;;8.60;7.80;;;;;;;;;;4980747;28;20308;-76
2022/09/30 05:38:24;;;;;;;9.03;8.33;;;;;;;;;;4980136;28;20572;-72
2022/09/30 05:40:49;;;;;;;8.77;7.67;;;;;;;;;;4998937;28;20687;-72
2022/09/30 05:43:15;;;;;;;7.90;7.13;;;;;;;;;;4981566;28;20228;-71
2022/09/30 05:45:45;;;;;;;7.97;6.83;;;;;;;;;;4982615;28;20225;-74
2022/09/30 05:48:11;;;;;;;8.23;7.53;;;;;;;;;;4979671;28;20315;-75
2022/09/30 05:50:36;;;;;;;7.40;6.80;;;;;;;;;;5013304;28;20217;-74
2022/09/30 05:53:02;;;;;;;9.00;8.17;;;;;;;;;;4975030;28;20690;-73
2022/09/30 05:55:27;;;;;;;9.40;7.70;;;;;;;;;;4977330;28;20691;-73
2022/09/30 05:57:53;;;;;;;10.47;8.20;;;;;;;;;;4994416;28;20220;-75
2022/09/30 06:00:21;;;;;;;9.10;8.20;;;;;;;;;;4993740;28;20213;-73
2022/09/30 06:02:50;;;;;;;8.30;7.60;;;;;;;;;;4978087;28;20229;-72
2022/09/30 06:05:15;;;;;;;8.10;6.97;;;;;;;;;;4980634;28;20236;-72
2022/09/30 06:07:43;;;;;;;7.00;6.47;;;;;;;;;;4982709;28;20228;-75
2022/09/30 06:10:11;;;;;;;7.40;6.87;;;;;;;;;;5013544;28;20289;-72
2022/09/30 06:12:37;;;;;;;7.47;6.77;;;;;;;;;;4996798;28;20228;-74
2022/09/30 06:15:03;;;;;;;6.93;6.43;;;;;;;;;;4997753;28;20699;-74
2022/09/30 06:17:29;;;;;;;6.40;5.93;;;;;;;;;;4995124;28;20216;-74
2022/09/30 06:19:55;;;;;;;7.00;6.40;;;;;;;;;;5003919;28;20303;-74
2022/09/30 06:22:21;;;;;;;7.87;7.07;;;;;;;;;;5009766;28;20665;-74
2022/09/30 06:24:51;;;;;;;7.90;7.30;;;;;;;;;;4980806;28;20244;-74
2022/09/30 06:27:18;;;;;;;8.50;7.70;;;;;;;;;;4978212;28;20231;-74
2022/09/30 06:29:43;;;;;;;8.63;7.93;;;;;;;;;;4964378;28;20221;-74
2022/09/30 06:32:09;;;;;;;9.20;7.90;;;;;;;;;;5010217;28;20606;-75
2022/09/30 06:34:34;;;;;;;8.03;7.23;;;;;;;;;;4998243;28;20306;-74
2022/09/30 06:37:02;;;;;;;9.33;7.83;;;;;;;;;;4995901;28;20233;-73
2022/09/30 06:39:41;;;;;;;9.87;8.97;;;;;;;;;;4993007;28;20220;-74
2022/09/30 06:42:07;;;;;;;13.40;12.13;;;;;;;;;;4977308;28;20232;-73
2022/09/30 06:44:33;;;;;;;20.27;18.57;;;;;;;;;;4994482;28;20580;-73
2022/09/30 06:46:59;;;;;;;20.53;18.73;;;;;;;;;;4980461;28;20236;-73
2022/09/30 06:49:28;;;;;;;21.00;19.23;;;;;;;;;;4995017;28;20227;-73
2022/09/30 06:51:53;;;;;;;22.07;20.13;;;;;;;;;;4995070;28;20224;-73
2022/09/30 06:54:19;;;;;;;23.20;21.30;;;;;;;;;;4993779;28;20772;-73
2022/09/30 06:56:47;;;;;;;23.53;21.50;;;;;;;;;;4979988;28;20623;-74
2022/09/30 06:59:15;;;;;;;23.60;21.60;;;;;;;;;;4996437;28;20213;-74
2022/09/30 07:01:43;;;;;;;24.77;22.57;;;;;;;;;;4948397;28;20216;-74
2022/09/30 07:04:13;;;;;;;25.43;23.23;;;;;;;;;;4996882;28;20221;-75
2022/09/30 07:06:40;;;;;;;25.50;23.30;;;;;;;;;;4991834;28;20217;-73
2022/09/30 07:09:06;;;;;;;24.57;22.43;;;;;;;;;;4994189;28;20228;-74
2022/09/30 07:11:31;;;;;;;24.57;22.40;;;;;;;;;;4969925;28;20229;-74
2022/09/30 07:13:59;;;;;;;24.53;22.23;;;;;;;;;;5009564;28;20792;-74
2022/09/30 07:16:24;;;;;;;22.50;20.60;;;;;;;;;;4994004;28;20227;-75
2022/09/30 07:18:53;;;;;;;22.40;20.30;;;;;;;;;;4978619;28;20295;-74
2022/09/30 07:21:20;;;;;;;20.97;19.27;;;;;;;;;;4976669;28;20613;-73
2022/09/30 07:23:49;;;;;;;22.20;20.10;;;;;;;;;;4981396;28;20569;-73
2022/09/30 07:26:21;;;;;;;20.83;19.03;;;;;;;;;;4975109;28;20230;-73
2022/09/30 07:28:51;;;;;;;19.93;18.33;;;;;;;;;;5012281;28;20709;-73
2022/09/30 07:31:21;;;;;;;20.60;18.97;;;;;;;;;;4995731;28;20216;-73
2022/09/30 07:33:50;;;;;;;20.47;18.77;;;;;;;;;;4972591;28;20724;-74
2022/09/30 07:36:28;;;;;;;19.80;18.33;;;;;;;;;;4951687;28;20232;-72
2022/09/30 07:38:59;;;;;;;22.07;20.13;;;;;;;;;;4977845;28;20236;-74
2022/09/30 07:41:28;;;;;;;20.20;18.60;;;;;;;;;;4968527;28;20220;-73
2022/09/30 07:43:57;;;;;;;21.53;19.67;;;;;;;;;;4985690;28;20687;-74
2022/09/30 07:46:28;;;;;;;20.70;19.10;;;;;;;;;;4961106;28;20247;-74
2022/09/30 07:48:56;;;;;;;21.20;19.50;;;;;;;;;;4986095;28;20224;-73
2022/09/30 07:51:33;;;;;;;21.03;19.27;;;;;;;;;;4999857;28;20224;-73
2022/09/30 07:54:04;;;;;;;20.67;18.87;;;;;;;;;;4966398;28;20926;-73
2022/09/30 07:56:32;;;;;;;21.17;19.47;;;;;;;;;;4980191;28;20220;-73
2022/09/30 07:59:01;;;;;;;22.83;20.93;;;;;;;;;;4978702;28;20239;-71
2022/09/30 08:01:27;;;;;;;21.17;19.27;;;;;;;;;;4973884;28;20220;-74
2022/09/30 08:03:54;;;;;;;22.60;20.67;;;;;;;;;;4976925;28;20232;-75
2022/09/30 08:06:25;;;;;;;21.47;19.80;;;;;;;;;;4993593;28;20221;-74
2022/09/30 08:08:52;;;;;;;20.80;19.07;;;;;;;;;;4994861;28;20880;-74
2022/09/30 08:11:17;;;;;;;20.67;18.93;;;;;;;;;;4995278;28;20239;-74
2022/09/30 08:13:43;;;;;;;20.77;18.80;;;;;;;;;;4994598;28;20710;-73
2022/09/30 08:16:08;;;;;;;19.20;17.60;;;;;;;;;;4964482;28;20231;-73
2022/09/30 08:18:36;;;;;;;18.70;17.20;;;;;;;;;;5003190;28;20225;-73
2022/09/30 08:21:05;;;;;;;18.30;16.80;;;;;;;;;;4979020;28;20228;-72
2022/09/30 08:23:33;;;;;;;18.00;16.50;;;;;;;;;;4961141;28;20286;-74
2022/09/30 08:26:10;;;;;;;17.73;16.23;;;;;;;;;;4973385;28;20237;-72
2022/09/30 08:28:37;;;;;;;16.43;15.07;;;;;;;;;;4978104;28;20243;-75
2022/09/30 08:31:11;;;;;;;17.03;15.33;;;;;;;;;;4994791;28;20232;-74
2022/09/30 08:33:37;;;;;;;16.50;15.00;;;;;;;;;;5011322;28;20236;-74
2022/09/30 08:36:10;;;;;;;15.10;13.90;;;;;;;;;;4993989;28;20224;-72
2022/09/30 08:38:35;;;;;;;14.33;13.20;;;;;;;;;;4976012;28;20224;-74
2022/09/30 08:41:22;;;;;;;13.63;12.33;;;;;;;;;;4994379;28;20235;-73
2022/09/30 08:44:21;;;;;;;13.57;12.47;;;;;;;;;;4977600;28;20232;-75
2022/09/30 08:47:06;;;;;;;12.80;11.73;;;;;;;;;;5009043;28;20236;-74
2022/09/30 08:49:33;;;;;;;13.20;12.07;;;;;;;;;;5008467;28;20220;-74
2022/09/30 08:52:04;;;;;;;11.70;10.80;;;;;;;;;;5012946;28;20726;-74
2022/09/30 08:54:33;;;;;;;11.20;10.33;;;;;;;;;;4993306;28;21015;-74
2022/09/30 08:56:59;;;;;;;11.00;10.00;;;;;;;;;;4978482;28;20232;-74
2022/09/30 08:59:33;;;;;;;10.13;9.33;;;;;;;;;;4979603;28;20242;-74
2022/09/30 09:02:20;;;;;;;10.90;9.80;;;;;;;;;;5001253;28;20251;-74
2022/09/30 09:04:46;;;;;;;10.53;9.63;;;;;;;;;;4997257;28;20231;-74
2022/09/30 09:07:39;;;;;;;9.27;8.57;;;;;;;;;;4980234;28;20225;-74
2022/09/30 09:10:29;;;;;;;9.70;8.47;;;;;;;;;;5012576;28;20225;-74
2022/09/30 09:13:04;;;;;;;8.90;8.20;;;;;;;;;;5007881;28;20781;-74
2022/09/30 09:15:31;;;;;;;8.47;7.67;;;;;;;;;;4981601;28;20233;-76
2022/09/30 09:18:02;;;;;;;9.47;8.57;;;;;;;;;;5011349;28;20754;-74
2022/09/30 09:20:40;;;;;;;8.80;8.00;;;;;;;;;;5010945;28;20221;-71
2022/09/30 09:23:09;;;;;;;6.93;6.33;;;;;;;;;;4975764;28;20236;-72
2022/09/30 09:25:35;;;;;;;6.93;6.33;;;;;;;;;;4998790;28;20224;-72
2022/09/30 09:28:32;;;;;;;7.53;6.40;;;;;;;;;;4990451;28;20233;-74
2022/09/30 09:31:00;;;;;;;7.23;6.63;;;;;;;;;;4963137;28;20957;-76
2022/09/30 09:33:34;;;;;;;7.07;6.47;;;;;;;;;;4979736;28;20221;-75
2022/09/30 09:36:17;;;;;;;6.33;5.83;;;;;;;;;;4994983;28;20220;-75
2022/09/30 09:39:16;;;;;;;6.57;4.93;;;;;;;;;;4996040;28;20228;-74
2022/09/30 09:42:13;;;;;;;4.97;4.57;;;;;;;;;;5012229;28;20231;-74
2022/09/30 09:44:55;;;;;;;5.40;4.90;;;;;;;;;;4997542;28;20228;-74
2022/09/30 09:47:23;;;;;;;5.37;4.97;;;;;;;;;;4996364;28;20310;-74
2022/09/30 09:50:02;;;;;;;5.40;4.97;;;;;;;;;;4978220;28;20256;-74
2022/09/30 09:52:43;;;;;;;8.00;5.37;;;;;;;;;;4980826;28;20307;-73
2022/09/30 09:55:10;;;;;;;8.63;5.30;;;;;;;;;;4993775;28;20243;-74
2022/09/30 09:57:35;;;;;;;5.17;4.77;;;;;;;;;;4986716;28;20608;-74
2022/09/30 10:03:18;;;;;;;5.13;4.72;;;;;;;;;;4996177;28;20232;-74
2022/09/30 10:06:00;;;;;;;5.80;5.30;;;;;;;;;;4963103;28;20302;-74
2022/09/30 10:08:26;;;;;;;7.10;6.38;;;;;;;;;;4994426;28;20239;-74
2022/09/30 10:10:55;;;;;;;5.35;4.95;;;;;;;;;;4998533;28;20671;-74
2022/09/30 10:13:22;;;;;;;5.40;4.97;;;;;;;;;;4996337;28;20286;-74
2022/09/30 10:15:54;;;;;;;5.33;4.93;;;;;;;;;;4981491;28;20232;-74
2022/09/30 10:18:31;;;;;;;5.68;5.07;;;;;;;;;;5007565;28;20232;-74
2022/09/30 10:21:24;;;;;;;5.88;5.38;;;;;;;;;;4996197;28;20691;-74
2022/09/30 10:23:50;;;;;;;5.43;4.93;;;;;;;;;;5013196;28;20227;-73
2022/09/30 10:26:19;;;;;;;5.30;4.90;;;;;;;;;;4980273;28;20229;-74
2022/09/30 10:28:54;;;;;;;5.25;4.85;;;;;;;;;;4992405;28;20221;-75
2022/09/30 10:31:34;;;;;;;6.20;5.57;;;;;;;;;;4993326;28;21065;-75
2022/09/30 10:34:16;;;;;;;6.95;5.85;;;;;;;;;;4980399;28;20331;-72
2022/09/30 10:36:49;;;;;;;6.00;5.50;;;;;;;;;;4979522;28;20216;-75
2022/09/30 10:39:37;;;;;;;6.07;5.47;;;;;;;;;;4961518;28;20335;-73
2022/09/30 10:42:08;;;;;;;6.57;5.13;;;;;;;;;;4975838;28;20221;-75
2022/09/30 10:45:09;;;;;;;6.43;5.88;;;;;;;;;;4995195;28;20231;-73
2022/09/30 10:47:34;;;;;;;6.45;5.85;;;;;;;;;;4995877;28;20227;-74
2022/09/30 10:50:03;;;;;;;6.88;6.28;;;;;;;;;;4961526;28;20224;-74
2022/09/30 10:52:36;;;;;;;6.55;5.95;;;;;;;;;;4981997;28;20255;-74
2022/09/30 10:55:09;;;;;;;6.30;5.80;;;;;;;;;;4998734;28;20259;-74
2022/09/30 10:57:38;;;;;;;9.38;5.75;;;;;;;;;;4978063;28;20221;-76
2022/09/30 11:00:12;;;;;;;6.80;6.20;;;;;;;;;;4964594;28;20255;-75
2022/09/30 11:02:43;;;;;;;5.70;5.20;;;;;;;;;;5003810;28;20246;-73
2022/09/30 11:05:19;;;;;;;5.70;5.20;;;;;;;;;;4977450;28;20766;-72
2022/09/30 11:07:59;;;;;;;5.20;4.80;;;;;;;;;;4994311;28;20290;-74
2022/09/30 11:10:29;;;;;;;6.45;5.78;;;;;;;;;;4993012;28;20294;-73
2022/09/30 11:13:22;;;;;;;5.10;4.70;;;;;;;;;;5004134;28;20702;-75
2022/09/30 11:16:09;;;;;;;5.10;4.65;;;;;;;;;;4986042;28;20225;-73
2022/09/30 11:18:42;;;;;;;5.30;4.67;;;;;;;;;;4993174;28;20220;-73
2022/09/30 11:21:16;;;;;;;4.53;4.10;;;;;;;;;;5010564;28;20232;-73
2022/09/30 11:24:01;;;;;;;7.00;6.30;;;;;;;;;;4990329;28;20294;-75
2022/09/30 11:26:47;;;;;;;6.15;5.65;;;;;;;;;;4994146;28;20941;-73
2022/09/30 11:29:26;;;;;;;4.82;3.90;;;;;;;;;;5009372;28;20279;-74
2022/09/30 11:31:58;;;;;;;5.90;5.15;;;;;;;;;;4995129;28;20575;-76
2022/09/30 11:34:42;;;;;;;6.35;5.25;;;;;;;;;;4975418;28;20266;-75
2022/09/30 11:37:11;;;;;;;4.83;4.23;;;;;;;;;;5008161;28;20264;-74
2022/09/30 11:40:10;;;;;;;5.43;4.90;;;;;;;;;;5007108;28;20320;-73
2022/09/30 11:42:44;;;;;;;4.53;4.20;;;;;;;;;;5001944;28;20711;-73
2022/09/30 11:45:29;;;;;;;6.18;4.60;;;;;;;;;;4993068;28;20310;-73
2022/09/30 11:48:13;;;;;;;4.05;3.75;;;;;;;;;;5010401;28;20615;-73
2022/09/30 11:51:01;;;;;;;4.10;3.73;;;;;;;;;;5010489;28;20224;-74
2022/09/30 11:53:30;;;;;;;4.05;3.35;;;;;;;;;;4999199;28;20225;-74
2022/09/30 11:56:13;;;;;;;5.05;4.00;;;;;;;;;;5000161;28;20228;-74
2022/09/30 11:58:44;;;;;;;3.83;3.53;;;;;;;;;;4994821;28;20299;-74
2022/09/30 12:01:21;;;;;;;8.13;3.97;;;;;;;;;;4974024;28;20278;-74
2022/09/30 12:04:08;;;;;;;3.75;3.35;;;;;;;;;;4977557;28;20228;-75
2022/09/30 12:06:35;;;;;;;4.07;3.70;;;;;;;;;;4992072;28;20362;-73
2022/09/30 12:09:24;;;;;;;3.28;2.90;;;;;;;;;;5012070;28;20982;-76
2022/09/30 12:11:57;;;;;;;2.40;2.20;;;;;;;;;;5009466;28;20578;-74
2022/09/30 12:14:30;;;;;;;2.50;1.90;;;;;;;;;;4991988;28;20228;-73
2022/09/30 12:16:56;;;;;;;2.28;2.08;;;;;;;;;;4996489;28;20271;-74
2022/09/30 12:19:42;;;;;;;3.58;2.50;;;;;;;;;;4992701;28;20271;-73
2022/09/30 12:22:15;;;;;;;2.47;2.25;;;;;;;;;;4961460;28;20232;-75
2022/09/30 12:24:46;;;;;;;2.67;2.47;;;;;;;;;;4973180;28;20224;-74
2022/09/30 12:27:19;;;;;;;2.70;2.50;;;;;;;;;;4977763;28;20236;-74
2022/09/30 12:33:05;;;;;;;4.10;2.40;;;;;;;;;;4979529;28;20236;-72
2022/09/30 12:35:39;;;;;;;2.65;2.42;;;;;;;;;;4995940;28;20235;-71
2022/09/30 12:38:27;;;;;;;3.50;2.88;;;;;;;;;;5013326;28;20228;-71
2022/09/30 12:41:44;;;;;;;6.10;2.88;;;;;;;;;;4978364;28;20217;-75
2022/09/30 12:44:10;;;;;;;2.50;2.30;;;;;;;;;;4962282;28;20307;-73
2022/09/30 12:46:57;;;;;;;3.13;2.40;;;;;;;;;;4976474;28;20225;-72
2022/09/30 12:49:26;;;;;;;3.17;2.88;;;;;;;;;;4990814;28;20282;-73
2022/09/30 12:51:56;;;;;;;4.28;3.13;;;;;;;;;;4970702;28;20323;-72
2022/09/30 12:54:30;;;;;;;2.63;2.42;;;;;;;;;;4960188;28;20335;-74
2022/09/30 12:56:59;;;;;;;2.80;2.38;;;;;;;;;;4975221;28;20634;-75
2022/09/30 12:59:32;;;;;;;3.05;2.67;;;;;;;;;;4974618;28;20231;-74
2022/09/30 13:02:02;;;;;;;2.85;2.65;;;;;;;;;;4974208;28;20239;-75
2022/09/30 13:04:46;;;;;;;2.85;2.65;;;;;;;;;;4974168;28;20229;-74
2022/09/30 13:07:20;;;;;;;3.05;2.80;;;;;;;;;;4989508;28;20209;-75
2022/09/30 13:09:57;;;;;;;2.88;2.67;;;;;;;;;;5006481;28;20712;-74
2022/09/30 13:12:24;;;;;;;3.15;2.95;;;;;;;;;;4991762;28;20252;-73
2022/09/30 13:14:50;;;;;;;3.15;2.88;;;;;;;;;;4992262;28;20210;-73
2022/09/30 13:17:16;;;;;;;2.70;2.50;;;;;;;;;;4991009;28;20617;-73
2022/09/30 13:19:43;;;;;;;3.22;2.45;;;;;;;;;;5010855;28;20235;-74
2022/09/30 13:22:21;;;;;;;2.58;2.28;;;;;;;;;;4997999;28;20232;-73
2022/09/30 13:24:56;;;;;;;2.50;2.30;;;;;;;;;;5007477;28;20229;-73
2022/09/30 13:27:54;;;;;;;3.35;3.05;;;;;;;;;;5007951;28;20606;-73
2022/09/30 13:30:19;;;;;;;3.17;2.67;;;;;;;;;;4975811;28;20223;-73
2022/09/30 13:33:27;;;;;;;2.15;1.95;;;;;;;;;;5010369;28;20228;-75
2022/09/30 13:35:56;;;;;;;3.28;2.72;;;;;;;;;;4972185;28;20220;-75
2022/09/30 13:38:37;;;;;;;3.25;2.95;;;;;;;;;;4978574;28;20216;-72
2022/09/30 13:41:05;;;;;;;3.03;2.33;;;;;;;;;;4974627;28;20229;-73
2022/09/30 13:43:45;;;;;;;3.45;2.30;;;;;;;;;;4985896;28;20248;-76
2022/09/30 13:46:21;;;;;;;4.32;2.70;;;;;;;;;;5009982;28;20312;-74
2022/09/30 13:49:01;;;;;;;2.72;2.53;;;;;;;;;;4995841;28;20765;-74
2022/09/30 13:51:30;;;;;;;2.65;2.45;;;;;;;;;;4962689;28;20244;-73
2022/09/30 13:53:58;;;;;;;4.70;2.92;;;;;;;;;;4980100;28;20260;-79
2022/09/30 13:56:26;;;;;;;3.78;2.63;;;;;;;;;;4986760;28;20221;-80
2022/09/30 13:59:36;;;;;;;3.22;2.88;;;;;;;;;;4995179;28;20220;-73
2022/09/30 14:02:37;;;;;;;3.33;3.03;;;;;;;;;;4927853;28;20220;-74
2022/09/30 14:05:14;;;;;;;3.58;2.75;;;;;;;;;;5000325;28;20231;-76
2022/09/30 14:08:05;;;;;;;4.85;3.65;;;;;;;;;;4992995;28;20308;-74
2022/09/30 14:10:42;;;;;;;2.90;2.70;;;;;;;;;;4939319;28;20220;-73
2022/09/30 14:13:21;;;;;;;3.53;3.20;;;;;;;;;;4988094;28;20231;-74
2022/09/30 14:15:55;;;;;;;3.38;2.38;;;;;;;;;;5013487;28;20231;-74
2022/09/30 14:18:41;;;;;;;2.72;2.13;;;;;;;;;;4995903;28;20279;-75
2022/09/30 14:21:16;;;;;;;4.07;2.88;;;;;;;;;;5009632;28;20239;-75
2022/09/30 14:23:43;;;;;;;3.75;2.70;;;;;;;;;;5011657;28;20244;-76
2022/09/30 14:26:23;;;;;;;2.58;2.38;;;;;;;;;;4979175;28;20248;-75
2022/09/30 14:28:54;;;;;;;2.97;2.45;;;;;;;;;;5011901;28;20233;-74
2022/09/30 14:31:19;;;;;;;3.85;2.60;;;;;;;;;;4992941;28;20228;-74
2022/09/30 14:33:49;;;;;;;2.65;2.40;;;;;;;;;;4994112;28;20238;-74
2022/09/30 14:36:20;;;;;;;3.53;2.28;;;;;;;;;;4979446;28;20314;-74
2022/09/30 14:38:48;;;;;;;2.33;2.13;;;;;;;;;;4982119;28;20694;-74
2022/09/30 14:41:17;;;;;;;2.58;2.38;;;;;;;;;;4976614;28;20264;-75
2022/09/30 14:43:45;;;;;;;4.25;3.35;;;;;;;;;;4979910;28;20236;-73
2022/09/30 14:46:28;;;;;;;3.60;3.00;;;;;;;;;;4995686;28;20270;-74
2022/09/30 14:48:54;;;;;;;3.30;3.00;;;;;;;;;;4993742;28;20232;-75
2022/09/30 14:51:22;;;;;;;4.63;2.88;;;;;;;;;;4979087;28;20225;-73
2022/09/30 14:53:53;;;;;;;2.33;2.13;;;;;;;;;;5010976;28;20275;-73
2022/09/30 14:56:29;;;;;;;2.92;2.60;;;;;;;;;;4993361;28;20228;-76
2022/09/30 14:58:58;;;;;;;3.47;2.60;;;;;;;;;;4976429;28;20303;-75
2022/09/30 15:01:26;;;;;;;2.67;2.20;;;;;;;;;;4992153;28;20278;-75
2022/09/30 15:03:58;;;;;;;2.45;2.25;;;;;;;;;;4947386;28;20220;-74
2022/09/30 15:06:26;;;;;;;2.75;2.50;;;;;;;;;;4962346;28;20298;-74
2022/09/30 15:09:19;;;;;;;3.42;2.10;;;;;;;;;;4966178;28;20221;-75
2022/09/30 15:11:45;;;;;;;7.07;2.55;;;;;;;;;;4989537;28;20220;-75
2022/09/30 15:14:19;;;;;;;2.40;2.20;;;;;;;;;;4995008;28;20241;-73
2022/09/30 15:16:53;;;;;;;2.63;2.42;;;;;;;;;;4977243;28;20221;-74
2022/09/30 15:19:22;;;;;;;3.13;2.38;;;;;;;;;;4979217;28;20217;-75
2022/09/30 15:21:49;;;;;;;5.03;2.80;;;;;;;;;;4992501;28;20304;-75